createdAt,value
2022-08-26T00:01:10.566Z,98479.20
2022-08-26T00:04:41.427Z,98472.83
2022-08-26T00:08:13.592Z,98469.88
2022-08-26T00:11:43.429Z,98464.63
2022-08-26T00:14:59.613Z,98467.48
2022-08-26T00:18:31.426Z,98466.52
2022-08-26T00:22:08.620Z,98465.01
2022-08-26T00:25:38.437Z,98463.33
2022-08-26T00:29:12.585Z,98462.84
2022-08-26T00:32:43.966Z,98463.11
2022-08-26T00:36:20.389Z,98466.94
2022-08-26T00:39:54.435Z,98467.02
2022-08-26T00:43:25.639Z,98470.79
2022-08-26T00:46:53.434Z,98464.30
2022-08-26T00:50:25.586Z,98463.52
2022-08-26T00:54:00.431Z,98461.85
2022-08-26T00:57:34.586Z,98464.17
2022-08-26T01:04:45.097Z,98463.76
2022-08-26T01:07:34.752Z,98465.98
2022-08-26T01:10:26.550Z,98465.46
2022-08-26T01:13:14.217Z,98466.86
2022-08-26T01:16:04.210Z,98468.30
2022-08-26T01:18:55.426Z,98470.61
2022-08-26T01:21:54.973Z,98469.91
2022-08-26T01:24:42.125Z,98472.49
2022-08-26T01:27:32.500Z,98473.63
2022-08-26T01:30:21.152Z,98472.86
2022-08-26T01:33:15.230Z,98476.33
2022-08-26T01:36:03.091Z,98474.26
2022-08-26T01:38:49.892Z,98473.06
2022-08-26T01:41:38.137Z,98472.13
2022-08-26T01:44:29.270Z,98469.48
2022-08-26T01:47:22.970Z,98469.04
2022-08-26T01:50:27.773Z,98470.70
2022-08-26T01:53:19.909Z,98467.02
2022-08-26T01:56:10.146Z,98467.86
2022-08-26T01:59:00.842Z,98464.55
2022-08-26T02:01:48.971Z,98462.11
2022-08-26T02:05:05.583Z,98452.61
2022-08-26T02:07:53.555Z,98455.95
2022-08-26T02:10:41.242Z,98455.06
2022-08-26T02:13:33.433Z,98449.77
2022-08-26T02:16:24.012Z,98453.88
2022-08-26T02:19:24.413Z,98449.59
2022-08-26T02:22:16.188Z,98448.50
2022-08-26T02:25:39.490Z,98445.09
2022-08-26T02:28:31.269Z,98446.21
2022-08-26T02:31:18.941Z,98446.95
2022-08-26T02:34:16.683Z,98443.71
2022-08-26T02:37:07.932Z,98445.16
2022-08-26T02:39:54.729Z,98443.48
2022-08-26T02:42:42.187Z,98441.84
2022-08-26T02:45:29.829Z,98445.42
2022-08-26T02:48:19.253Z,98444.20
2022-08-26T02:51:06.104Z,98442.46
2022-08-26T02:53:53.699Z,98441.50
2022-08-26T02:56:40.661Z,98438.77
2022-08-26T02:59:27.473Z,98440.95
2022-08-26T03:02:17.395Z,98438.23
2022-08-26T03:05:05.191Z,98436.16
2022-08-26T03:07:52.812Z,98433.33
2022-08-26T03:10:41.393Z,98435.77
2022-08-26T03:13:29.725Z,98437.56
2022-08-26T03:16:17.614Z,98433.83
2022-08-26T03:19:07.376Z,98432.05
2022-08-26T03:21:57.871Z,98432.65
2022-08-26T03:24:46.106Z,98433.23
2022-08-26T03:27:34.356Z,98434.85
2022-08-26T03:30:44.708Z,98429.14
2022-08-26T03:33:32.290Z,98429.55
2022-08-26T03:36:19.800Z,98431.18
2022-08-26T03:39:07.244Z,98432.48
2022-08-26T03:41:55.494Z,98431.80
2022-08-26T03:44:42.553Z,98430.79
2022-08-26T03:47:31.279Z,98428.88
2022-08-26T03:50:22.836Z,98425.16
2022-08-26T03:53:13.152Z,98423.45
2022-08-26T03:56:00.584Z,98424.20
2022-08-26T03:58:47.344Z,98426.52
2022-08-26T04:01:35.268Z,98419.13
2022-08-26T04:04:22.866Z,98420.67
2022-08-26T04:07:12.539Z,98416.12
2022-08-26T04:09:59.726Z,98418.23
2022-08-26T04:12:46.744Z,98417.48
2022-08-26T04:15:33.942Z,98414.34
2022-08-26T04:18:22.251Z,98413.52
2022-08-26T04:21:10.016Z,98408.13
2022-08-26T04:24:00.588Z,98405.70
2022-08-26T04:26:52.373Z,98407.14
2022-08-26T04:29:41.321Z,98410.99
2022-08-26T04:32:28.622Z,98409.73
2022-08-26T04:35:15.667Z,98412.48
2022-08-26T04:38:20.059Z,98414.01
2022-08-26T04:41:15.082Z,98414.27
2022-08-26T04:44:04.868Z,98409.98
2022-08-26T04:46:52.282Z,98407.05
2022-08-26T04:49:40.569Z,98412.86
2022-08-26T04:52:29.715Z,98405.24
2022-08-26T04:55:17.805Z,98406.82
2022-08-26T04:58:10.135Z,98411.41
2022-08-26T05:00:58.510Z,98406.23
2022-08-26T05:03:46.614Z,98402.94
2022-08-26T05:06:35.478Z,98405.17
2022-08-26T05:09:24.421Z,98405.23
2022-08-26T05:12:11.973Z,98409.60
2022-08-26T05:15:00.288Z,98410.81
2022-08-26T05:17:47.882Z,98412.10
2022-08-26T05:20:46.847Z,98410.40
2022-08-26T05:23:36.100Z,98409.46
2022-08-26T05:26:26.801Z,98409.02
2022-08-26T05:29:14.238Z,98412.38
2022-08-26T05:32:01.938Z,98410.48
2022-08-26T05:34:54.167Z,98403.83
2022-08-26T05:37:41.137Z,98406.30
2022-08-26T05:40:29.049Z,98406.77
2022-08-26T05:43:17.396Z,98406.39
2022-08-26T05:46:07.825Z,98404.34
2022-08-26T05:48:58.330Z,98399.23
2022-08-26T05:51:47.474Z,98401.64
2022-08-26T05:54:35.250Z,98399.48
2022-08-26T05:57:23.065Z,98395.02
2022-08-26T06:00:11.900Z,98394.21
2022-08-26T06:03:01.456Z,98389.10
2022-08-26T06:05:48.679Z,98386.35
2022-08-26T06:08:36.974Z,98382.98
2022-08-26T06:11:32.331Z,98386.49
2022-08-26T06:14:19.051Z,98386.05
2022-08-26T06:17:11.143Z,98385.52
2022-08-26T06:20:00.815Z,98384.91
2022-08-26T06:23:06.837Z,98386.20
2022-08-26T06:25:55.478Z,98387.23
2022-08-26T06:28:45.537Z,98388.64
2022-08-26T06:31:36.653Z,98390.27
2022-08-26T06:34:29.684Z,98392.39
2022-08-26T06:37:17.353Z,98393.85
2022-08-26T06:40:06.203Z,98392.92
2022-08-26T06:42:53.367Z,98393.97
2022-08-26T06:45:41.347Z,98392.75
2022-08-26T06:48:28.225Z,98391.91
2022-08-26T06:51:22.340Z,98391.61
2022-08-26T06:54:10.975Z,98393.24
2022-08-26T06:56:58.292Z,98393.31
2022-08-26T06:59:45.605Z,98390.70
2022-08-26T07:02:32.178Z,98389.72
2022-08-26T07:05:19.202Z,98389.52
2022-08-26T07:08:06.345Z,98387.12
2022-08-26T07:10:53.612Z,98390.30
2022-08-26T07:13:43.146Z,98391.48
2022-08-26T07:16:30.179Z,98392.00
2022-08-26T07:19:31.129Z,98392.83
2022-08-26T07:22:19.129Z,98394.62
2022-08-26T07:25:08.545Z,98392.88
2022-08-26T07:27:55.514Z,98389.11
2022-08-26T07:30:42.749Z,98388.98
2022-08-26T07:33:30.298Z,98390.42
2022-08-26T07:36:18.963Z,98389.55
2022-08-26T07:39:07.116Z,98389.13
2022-08-26T07:41:54.381Z,98390.08
2022-08-26T07:44:41.405Z,98391.38
2022-08-26T07:47:27.998Z,98391.05
2022-08-26T07:50:15.490Z,98389.25
2022-08-26T07:53:06.869Z,98394.21
2022-08-26T07:55:59.303Z,98390.23
2022-08-26T07:58:50.484Z,98389.40
2022-08-26T08:01:39.053Z,98386.94
2022-08-26T08:04:28.562Z,98385.72
2022-08-26T08:07:15.879Z,98386.22
2022-08-26T08:10:05.592Z,98388.93
2022-08-26T08:12:57.867Z,98388.17
2022-08-26T08:15:46.143Z,98387.73
2022-08-26T08:18:33.286Z,98383.84
2022-08-26T08:21:23.640Z,98387.00
2022-08-26T08:24:12.055Z,98379.36
2022-08-26T08:27:00.965Z,98378.81
2022-08-26T08:29:48.052Z,98373.11
2022-08-26T08:32:38.407Z,98373.73
2022-08-26T08:35:26.604Z,98370.60
2022-08-26T08:38:13.739Z,98377.81
2022-08-26T08:41:01.149Z,98372.98
2022-08-26T08:43:53.151Z,98369.16
2022-08-26T08:46:43.279Z,98369.57
2022-08-26T08:49:31.968Z,98371.38
2022-08-26T08:52:32.336Z,98365.88
2022-08-26T08:55:19.346Z,98363.62
2022-08-26T08:58:16.401Z,98359.03
2022-08-26T09:01:12.301Z,98358.30
2022-08-26T09:04:18.630Z,98354.92
2022-08-26T09:07:10.565Z,98356.98
2022-08-26T09:10:05.618Z,98357.38
2022-08-26T09:12:52.572Z,98348.31
2022-08-26T09:16:03.307Z,98347.60
2022-08-26T09:19:18.873Z,-1.00
2022-08-26T09:22:09.302Z,78671.94
2022-08-26T09:24:56.736Z,98335.25
2022-08-26T09:27:50.473Z,98333.05
2022-08-26T09:30:37.792Z,98331.14
2022-08-26T09:33:30.249Z,98325.89
2022-08-26T09:36:44.548Z,98324.67
2022-08-26T09:39:37.851Z,98321.08
2022-08-26T09:42:25.636Z,98316.78
2022-08-26T09:45:13.302Z,98319.77
2022-08-26T09:48:02.496Z,98316.05
2022-08-26T09:50:55.500Z,98313.98
2022-08-26T09:53:59.007Z,98315.16
2022-08-26T09:56:46.659Z,98315.16
2022-08-26T09:59:33.787Z,98314.60
2022-08-26T10:02:34.727Z,98318.59
2022-08-26T10:05:35.137Z,98317.39
2022-08-26T10:08:27.666Z,98313.23
2022-08-26T10:11:22.764Z,98316.43
2022-08-26T10:14:25.062Z,98316.08
2022-08-26T10:17:37.125Z,98319.97
2022-08-26T10:20:27.547Z,98316.65
2022-08-26T10:23:18.878Z,98314.33
2022-08-26T10:26:39.983Z,98312.83
2022-08-26T10:29:49.138Z,98311.23
2022-08-26T10:32:45.930Z,98306.80
2022-08-26T10:35:36.450Z,98304.88
2022-08-26T10:38:35.799Z,98305.72
2022-08-26T10:41:43.460Z,98299.23
2022-08-26T10:44:41.055Z,98300.50
2022-08-26T10:47:41.611Z,98306.18
2022-08-26T10:50:36.115Z,98304.31
2022-08-26T10:53:44.322Z,98302.23
2022-08-26T10:56:49.280Z,98297.38
2022-08-26T10:59:57.517Z,98302.15
2022-08-26T11:02:50.522Z,98302.13
2022-08-26T11:05:37.574Z,98303.38
2022-08-26T11:08:30.018Z,98302.80
2022-08-26T11:11:42.350Z,98296.02
2022-08-26T11:14:53.642Z,98293.66
2022-08-26T11:17:46.431Z,98291.93
2022-08-26T11:20:41.775Z,98289.42
2022-08-26T11:23:28.976Z,98290.48
2022-08-26T11:26:35.679Z,98290.14
2022-08-26T11:29:59.435Z,98279.30
2022-08-26T11:32:55.648Z,-1.00
2022-08-26T11:35:42.441Z,-1.00
2022-08-26T11:38:32.620Z,-1.00
2022-08-26T11:41:23.029Z,-1.00
2022-08-26T11:44:11.344Z,-1.00
2022-08-26T11:47:11.398Z,-1.00
2022-08-26T11:50:19.826Z,-1.00
2022-08-26T11:53:07.776Z,-1.00
2022-08-26T11:55:58.302Z,-1.00
2022-08-26T11:58:48.762Z,-1.00
2022-08-26T12:01:43.574Z,-1.00
2022-08-26T12:04:33.326Z,-1.00
2022-08-26T12:07:30.187Z,-1.00
2022-08-26T12:10:33.823Z,-1.00
2022-08-26T12:13:26.644Z,-1.00
2022-08-26T12:16:13.526Z,-1.00
2022-08-26T12:19:01.534Z,-1.00
2022-08-26T12:21:49.720Z,-1.00
2022-08-26T12:24:44.376Z,-1.00
2022-08-26T12:27:39.935Z,-1.00
2022-08-26T12:30:28.882Z,-1.00
2022-08-26T12:33:23.021Z,-1.00
2022-08-26T12:36:12.485Z,-1.00
2022-08-26T12:39:11.945Z,-1.00
2022-08-26T12:42:23.353Z,-1.00
2022-08-26T12:45:10.450Z,-1.00
2022-08-26T12:48:02.097Z,-1.00
2022-08-26T12:51:06.584Z,-1.00
2022-08-26T12:54:11.760Z,-1.00
2022-08-26T12:57:09.812Z,-1.00
2022-08-26T13:00:35.641Z,-1.00
2022-08-26T13:04:00.466Z,-1.00
2022-08-26T13:07:40.499Z,-1.00
2022-08-26T13:10:40.168Z,78580.63
2022-08-26T13:13:26.918Z,98213.77
2022-08-26T13:16:14.388Z,98207.33
2022-08-26T13:19:04.407Z,98203.11
2022-08-26T13:21:54.568Z,98197.42
2022-08-26T13:24:43.443Z,98197.36
2022-08-26T13:27:30.670Z,98196.01
2022-08-26T13:30:17.696Z,98194.48
2022-08-26T13:33:04.727Z,98197.41
2022-08-26T13:35:51.600Z,98196.04
2022-08-26T13:38:38.326Z,98196.20
2022-08-26T13:41:29.115Z,98195.42
2022-08-26T13:44:17.450Z,39279.16
2022-08-26T13:47:07.445Z,-1.00
2022-08-26T13:50:20.189Z,-1.00
2022-08-26T13:53:20.198Z,-1.00
2022-08-26T13:56:10.481Z,-1.00
2022-08-26T13:59:07.806Z,-1.00
2022-08-26T14:01:54.386Z,-1.00
2022-08-26T14:04:42.086Z,-1.00
2022-08-26T14:07:28.780Z,-1.00
2022-08-26T14:10:15.790Z,-1.00
2022-08-26T14:13:02.631Z,98184.13
2022-08-26T14:15:53.114Z,98175.91
2022-08-26T14:18:43.656Z,98178.54
2022-08-26T14:21:38.838Z,98175.29
2022-08-26T14:24:25.291Z,98174.04
2022-08-26T14:27:18.841Z,98176.35
2022-08-26T14:30:12.177Z,98165.75
2022-08-26T14:33:05.883Z,98164.46
2022-08-26T14:36:19.631Z,98167.72
2022-08-26T14:39:14.484Z,98163.24
2022-08-26T14:42:10.188Z,98164.63
2022-08-26T14:45:07.420Z,98162.66
2022-08-26T14:48:00.496Z,98163.13
2022-08-26T14:50:54.204Z,98165.36
2022-08-26T14:54:06.774Z,98162.89
2022-08-26T14:57:05.716Z,98164.17
2022-08-26T14:59:58.811Z,98161.08
2022-08-26T15:02:52.202Z,98161.65
2022-08-26T15:05:48.162Z,98164.73
2022-08-26T15:08:42.045Z,98164.48
2022-08-26T15:11:35.425Z,98158.92
2022-08-26T15:14:32.826Z,98158.84
2022-08-26T15:17:27.542Z,98159.56
2022-08-26T15:20:21.078Z,98160.51
2022-08-26T15:23:08.088Z,98159.55
2022-08-26T15:25:55.261Z,98156.27
2022-08-26T15:28:42.436Z,98162.05
2022-08-26T15:31:33.900Z,98157.20
2022-08-26T15:34:20.864Z,98157.02
2022-08-26T15:37:09.787Z,98162.15
2022-08-26T15:39:57.410Z,98163.98
2022-08-26T15:42:44.576Z,98162.99
2022-08-26T15:45:39.158Z,98157.73
2022-08-26T15:48:26.249Z,98160.30
2022-08-26T15:51:29.574Z,98161.66
2022-08-26T15:54:17.333Z,98162.37
2022-08-26T15:57:05.417Z,98157.33
2022-08-26T15:59:55.192Z,98160.48
2022-08-26T16:02:42.122Z,98158.08
2022-08-26T16:05:28.723Z,98158.30
2022-08-26T16:08:16.239Z,98156.67
2022-08-26T16:11:04.204Z,98158.38
2022-08-26T16:13:51.240Z,98160.69
2022-08-26T16:16:40.473Z,98155.32
2022-08-26T16:19:27.484Z,98154.45
2022-08-26T16:22:14.842Z,98152.05
2022-08-26T16:25:01.830Z,98149.80
2022-08-26T16:27:48.262Z,98140.56
2022-08-26T16:30:35.039Z,98140.02
2022-08-26T16:33:29.316Z,98139.31
2022-08-26T16:36:16.727Z,98140.92
2022-08-26T16:39:05.901Z,98136.83
2022-08-26T16:41:52.769Z,98134.54
2022-08-26T16:44:45.481Z,98140.07
2022-08-26T16:47:33.802Z,98132.76
2022-08-26T16:50:21.619Z,98130.27
2022-08-26T16:56:00.962Z,98130.64
2022-08-26T16:58:48.986Z,98125.99
2022-08-26T17:01:35.865Z,98127.83
2022-08-26T17:04:23.179Z,98126.20
2022-08-26T17:07:10.374Z,98125.09
2022-08-26T17:09:57.840Z,98122.45
2022-08-26T17:12:46.251Z,98118.85
2022-08-26T17:15:33.317Z,98119.69
2022-08-26T17:18:25.617Z,98114.89
2022-08-26T17:21:14.034Z,98116.83
2022-08-26T17:24:01.611Z,98114.02
2022-08-26T17:26:53.528Z,98113.69
2022-08-26T17:29:42.742Z,98114.25
2022-08-26T17:32:30.025Z,98112.77
2022-08-26T17:35:16.881Z,98111.03
2022-08-26T17:38:03.928Z,98112.86
2022-08-26T17:40:51.534Z,98113.16
2022-08-26T17:43:40.128Z,98113.71
2022-08-26T17:46:27.217Z,98119.42
2022-08-26T17:49:14.701Z,98119.14
2022-08-26T17:52:01.826Z,98116.88
2022-08-26T17:54:52.984Z,98123.54
2022-08-26T17:57:40.600Z,98125.97
2022-08-26T18:00:29.514Z,98130.13
2022-08-26T18:03:17.791Z,98126.75
2022-08-26T18:06:10.128Z,98128.12
2022-08-26T18:08:58.236Z,98130.55
2022-08-26T18:11:45.243Z,98128.41
2022-08-26T18:14:33.784Z,98127.73
2022-08-26T18:17:20.564Z,98128.60
2022-08-26T18:20:15.632Z,98134.41
2022-08-26T18:23:02.841Z,98137.83
2022-08-26T18:25:49.486Z,98138.67
2022-08-26T18:28:36.051Z,98144.45
2022-08-26T18:31:23.396Z,98138.48
2022-08-26T18:34:13.141Z,98137.40
2022-08-26T18:37:00.119Z,98138.50
2022-08-26T18:39:47.079Z,98143.84
2022-08-26T18:42:34.176Z,98144.25
2022-08-26T18:45:21.023Z,98140.83
2022-08-26T18:48:07.784Z,98141.21
2022-08-26T18:50:55.341Z,98142.89
2022-08-26T18:53:42.206Z,98142.91
2022-08-26T18:56:30.170Z,98148.00
2022-08-26T18:59:17.522Z,98149.11
2022-08-26T19:02:04.661Z,98144.29
2022-08-26T19:04:52.040Z,98139.58
2022-08-26T19:07:39.714Z,98137.17
2022-08-26T19:10:27.579Z,98136.52
2022-08-26T19:13:14.713Z,98145.94
2022-08-26T19:16:02.998Z,98145.77
2022-08-26T19:18:50.841Z,98142.93
2022-08-26T19:21:39.361Z,98141.02
2022-08-26T19:24:28.324Z,98145.48
2022-08-26T19:27:15.267Z,98148.84
2022-08-26T19:30:01.981Z,98146.90
2022-08-26T19:32:48.991Z,98148.54
2022-08-26T19:35:36.477Z,98149.41
2022-08-26T19:38:24.155Z,98153.13
2022-08-26T19:41:26.567Z,98155.61
2022-08-26T19:44:42.874Z,98158.85
2022-08-26T19:47:30.123Z,98162.86
2022-08-26T19:50:17.467Z,98163.66
2022-08-26T19:53:04.931Z,98170.27
2022-08-26T19:55:52.163Z,98170.91
2022-08-26T19:58:39.889Z,98173.66
2022-08-26T20:01:26.864Z,98179.75
2022-08-26T20:04:14.300Z,98177.55
2022-08-26T20:07:02.275Z,98184.25
2022-08-26T20:09:50.380Z,98185.19
2022-08-26T20:12:37.304Z,98186.21
2022-08-26T20:15:24.543Z,98192.98
2022-08-26T20:18:34.310Z,98194.71
2022-08-26T20:21:27.450Z,98191.64
2022-08-26T20:24:17.363Z,98186.28
2022-08-26T20:27:07.711Z,98187.19
2022-08-26T20:29:56.141Z,98190.10
2022-08-26T20:32:43.586Z,98187.71
2022-08-26T20:35:30.209Z,98194.11
2022-08-26T20:38:20.975Z,98196.99
2022-08-26T20:41:08.876Z,98198.81
2022-08-26T20:43:56.717Z,98199.39
2022-08-26T20:46:44.492Z,98199.64
2022-08-26T20:49:32.360Z,98198.84
2022-08-26T20:52:21.816Z,98201.54
2022-08-26T20:55:10.064Z,98199.02
2022-08-26T20:57:56.830Z,98196.25
2022-08-26T21:00:48.276Z,98193.91
2022-08-26T21:03:36.506Z,98193.30
2022-08-26T21:06:24.042Z,98189.14
2022-08-26T21:09:12.788Z,98192.89
2022-08-26T21:12:02.126Z,98193.16
2022-08-26T21:14:49.771Z,98193.16
2022-08-26T21:17:39.056Z,98190.44
2022-08-26T21:20:26.281Z,98187.69
2022-08-26T21:23:15.212Z,98190.80
2022-08-26T21:26:04.120Z,98187.92
2022-08-26T21:28:51.821Z,98183.11
2022-08-26T21:31:44.889Z,98184.05
2022-08-26T21:34:32.794Z,98177.82
2022-08-26T21:37:19.754Z,98180.50
2022-08-26T21:40:12.755Z,98180.29
2022-08-26T21:42:59.983Z,98179.21
2022-08-26T21:45:47.231Z,98174.11
2022-08-26T21:48:35.222Z,98179.81
2022-08-26T21:51:24.518Z,98181.52
2022-08-26T21:54:12.802Z,98184.49
2022-08-26T21:57:00.235Z,98179.75
2022-08-26T21:59:47.226Z,98180.58
2022-08-26T22:02:34.943Z,98183.30
2022-08-26T22:05:21.886Z,98180.69
2022-08-26T22:08:09.169Z,98174.21
2022-08-26T22:10:57.306Z,98182.83
2022-08-26T22:13:44.473Z,98185.00
2022-08-26T22:16:31.208Z,98180.91
2022-08-26T22:19:23.452Z,98181.22
2022-08-26T22:22:10.939Z,98177.74
2022-08-26T22:24:58.065Z,98174.99
2022-08-26T22:27:45.114Z,98179.39
2022-08-26T22:30:32.302Z,98171.65
2022-08-26T22:33:19.318Z,98174.11
2022-08-26T22:36:06.516Z,98170.36
2022-08-26T22:38:54.854Z,98171.14
2022-08-26T22:41:44.492Z,98170.04
2022-08-26T22:44:31.975Z,98164.80
2022-08-26T22:47:19.363Z,98163.23
2022-08-26T22:50:07.288Z,98156.42
2022-08-26T22:52:54.178Z,98155.30
2022-08-26T22:55:41.259Z,98148.21
2022-08-26T23:03:36.003Z,98136.77
2022-08-26T23:06:23.358Z,98139.33
2022-08-26T23:09:14.895Z,98136.12
2022-08-26T23:12:01.933Z,98137.91
2022-08-26T23:14:49.169Z,98140.23
2022-08-26T23:17:41.353Z,98131.16
2022-08-26T23:20:34.171Z,98135.77
2022-08-26T23:23:21.093Z,98130.02
2022-08-26T23:26:08.782Z,98127.44
2022-08-26T23:28:56.201Z,98131.77
2022-08-26T23:31:43.192Z,98127.55
2022-08-26T23:34:48.785Z,98136.74
2022-08-26T23:37:39.432Z,98136.52
2022-08-26T23:40:32.442Z,98131.01
2022-08-26T23:43:20.019Z,98133.81
2022-08-26T23:46:07.162Z,98129.92
2022-08-26T23:48:54.276Z,98129.16
2022-08-26T23:51:59.920Z,98123.50
2022-08-26T23:54:48.972Z,98124.02
2022-08-26T23:57:35.805Z,98120.20
